sensor_id;sensor_type;location;lat;lon;timestamp;P1;durP1;ratioP1;P2;durP2;ratioP2
34035;SDS011;63481;52.588;22.472;2022-10-10T00:00:10;19.65;;;12.47;;
34035;SDS011;63481;52.588;22.472;2022-10-10T00:00:44;32.93;;;13.38;;
34035;SDS011;63481;52.588;22.472;2022-10-10T00:01:18;41.40;;;13.62;;
34035;SDS011;63481;52.588;22.472;2022-10-10T00:01:50;34.50;;;12.88;;
34035;SDS011;63481;52.588;22.472;2022-10-10T00:02:22;46.58;;;13.80;;
34035;SDS011;63481;52.588;22.472;2022-10-10T00:02:54;35.08;;;15.58;;
34035;SDS011;63481;52.588;22.472;2022-10-10T00:03:25;22.25;;;14.00;;
34035;SDS011;63481;52.588;22.472;2022-10-10T00:03:57;21.17;;;14.18;;
34035;SDS011;63481;52.588;22.472;2022-10-10T00:04:29;43.02;;;14.68;;
34035;SDS011;63481;52.588;22.472;2022-10-10T00:05:00;33.48;;;14.75;;
34035;SDS011;63481;52.588;22.472;2022-10-10T00:05:33;48.45;;;14.60;;
34035;SDS011;63481;52.588;22.472;2022-10-10T00:06:06;45.50;;;15.60;;
34035;SDS011;63481;52.588;22.472;2022-10-10T00:06:38;30.90;;;13.70;;
34035;SDS011;63481;52.588;22.472;2022-10-10T00:07:10;74.40;;;18.37;;
34035;SDS011;63481;52.588;22.472;2022-10-10T00:07:41;111.88;;;19.55;;
34035;SDS011;63481;52.588;22.472;2022-10-10T00:08:14;181.12;;;23.27;;
34035;SDS011;63481;52.588;22.472;2022-10-10T00:08:46;227.93;;;24.63;;
34035;SDS011;63481;52.588;22.472;2022-10-10T00:09:18;246.68;;;23.38;;
34035;SDS011;63481;52.588;22.472;2022-10-10T00:09:49;172.32;;;20.45;;
34035;SDS011;63481;52.588;22.472;2022-10-10T00:10:21;141.82;;;17.65;;
34035;SDS011;63481;52.588;22.472;2022-10-10T00:10:53;149.12;;;18.17;;
34035;SDS011;63481;52.588;22.472;2022-10-10T00:11:25;303.77;;;26.65;;
34035;SDS011;63481;52.588;22.472;2022-10-10T00:11:56;179.00;;;21.75;;
34035;SDS011;63481;52.588;22.472;2022-10-10T00:12:28;175.72;;;19.42;;
34035;SDS011;63481;52.588;22.472;2022-10-10T00:12:59;208.20;;;20.62;;
34035;SDS011;63481;52.588;22.472;2022-10-10T00:13:31;122.25;;;16.75;;
34035;SDS011;63481;52.588;22.472;2022-10-10T00:14:03;183.25;;;20.35;;
34035;SDS011;63481;52.588;22.472;2022-10-10T00:14:35;167.32;;;20.95;;
34035;SDS011;63481;52.588;22.472;2022-10-10T00:15:07;46.40;;;13.08;;
34035;SDS011;63481;52.588;22.472;2022-10-10T00:15:43;49.90;;;12.20;;
34035;SDS011;63481;52.588;22.472;2022-10-10T00:16:15;115.92;;;12.88;;
34035;SDS011;63481;52.588;22.472;2022-10-10T00:16:47;85.25;;;13.25;;
34035;SDS011;63481;52.588;22.472;2022-10-10T00:17:19;50.78;;;11.95;;
34035;SDS011;63481;52.588;22.472;2022-10-10T00:17:51;43.50;;;12.33;;
34035;SDS011;63481;52.588;22.472;2022-10-10T00:18:22;63.13;;;13.35;;
34035;SDS011;63481;52.588;22.472;2022-10-10T00:18:54;51.30;;;13.93;;
34035;SDS011;63481;52.588;22.472;2022-10-10T00:19:25;36.55;;;12.78;;
34035;SDS011;63481;52.588;22.472;2022-10-10T00:19:57;88.55;;;13.40;;
34035;SDS011;63481;52.588;22.472;2022-10-10T00:20:29;109.32;;;15.85;;
34035;SDS011;63481;52.588;22.472;2022-10-10T00:21:01;75.03;;;13.45;;
34035;SDS011;63481;52.588;22.472;2022-10-10T00:21:32;91.22;;;14.25;;
34035;SDS011;63481;52.588;22.472;2022-10-10T00:22:04;116.75;;;13.48;;
34035;SDS011;63481;52.588;22.472;2022-10-10T00:22:36;160.45;;;15.40;;
34035;SDS011;63481;52.588;22.472;2022-10-10T00:23:07;337.25;;;19.95;;
34035;SDS011;63481;52.588;22.472;2022-10-10T00:23:39;334.70;;;18.80;;
34035;SDS011;63481;52.588;22.472;2022-10-10T00:24:10;170.17;;;15.15;;
34035;SDS011;63481;52.588;22.472;2022-10-10T00:24:42;121.67;;;13.30;;
34035;SDS011;63481;52.588;22.472;2022-10-10T00:25:14;95.17;;;12.60;;
34035;SDS011;63481;52.588;22.472;2022-10-10T00:25:46;171.13;;;15.75;;
34035;SDS011;63481;52.588;22.472;2022-10-10T00:26:18;105.63;;;14.43;;
34035;SDS011;63481;52.588;22.472;2022-10-10T00:26:50;111.68;;;13.62;;
34035;SDS011;63481;52.588;22.472;2022-10-10T00:27:21;107.95;;;13.83;;
34035;SDS011;63481;52.588;22.472;2022-10-10T00:27:53;94.45;;;13.38;;
34035;SDS011;63481;52.588;22.472;2022-10-10T00:28:25;136.37;;;16.55;;
34035;SDS011;63481;52.588;22.472;2022-10-10T00:28:57;94.05;;;14.10;;
34035;SDS011;63481;52.588;22.472;2022-10-10T00:29:28;103.83;;;13.13;;
34035;SDS011;63481;52.588;22.472;2022-10-10T00:30:00;94.97;;;8.18;;
34035;SDS011;63481;52.588;22.472;2022-10-10T00:30:31;106.72;;;13.53;;
34035;SDS011;63481;52.588;22.472;2022-10-10T00:31:04;125.15;;;16.30;;
34035;SDS011;63481;52.588;22.472;2022-10-10T00:31:36;136.50;;;17.57;;
34035;SDS011;63481;52.588;22.472;2022-10-10T00:32:08;154.70;;;19.35;;
34035;SDS011;63481;52.588;22.472;2022-10-10T00:32:40;118.80;;;17.30;;
34035;SDS011;63481;52.588;22.472;2022-10-10T00:33:11;122.17;;;15.30;;
34035;SDS011;63481;52.588;22.472;2022-10-10T00:33:43;159.97;;;16.70;;
34035;SDS011;63481;52.588;22.472;2022-10-10T00:34:15;110.08;;;15.40;;
34035;SDS011;63481;52.588;22.472;2022-10-10T00:34:46;140.55;;;17.60;;
34035;SDS011;63481;52.588;22.472;2022-10-10T00:35:18;147.15;;;18.12;;
34035;SDS011;63481;52.588;22.472;2022-10-10T00:35:49;153.53;;;17.35;;
34035;SDS011;63481;52.588;22.472;2022-10-10T00:36:21;134.12;;;16.75;;
34035;SDS011;63481;52.588;22.472;2022-10-10T00:36:52;163.50;;;18.85;;
34035;SDS011;63481;52.588;22.472;2022-10-10T00:37:24;116.10;;;16.10;;
34035;SDS011;63481;52.588;22.472;2022-10-10T00:37:56;188.27;;;17.32;;
34035;SDS011;63481;52.588;22.472;2022-10-10T00:38:28;73.75;;;13.30;;
34035;SDS011;63481;52.588;22.472;2022-10-10T00:38:59;101.00;;;14.50;;
34035;SDS011;63481;52.588;22.472;2022-10-10T00:39:31;81.57;;;12.35;;
34035;SDS011;63481;52.588;22.472;2022-10-10T00:40:03;79.00;;;12.65;;
34035;SDS011;63481;52.588;22.472;2022-10-10T00:40:43;91.00;;;14.68;;
34035;SDS011;63481;52.588;22.472;2022-10-10T00:41:17;94.40;;;14.33;;
34035;SDS011;63481;52.588;22.472;2022-10-10T00:41:48;112.25;;;18.60;;
34035;SDS011;63481;52.588;22.472;2022-10-10T00:42:20;113.65;;;16.02;;
34035;SDS011;63481;52.588;22.472;2022-10-10T00:42:52;88.92;;;16.67;;
34035;SDS011;63481;52.588;22.472;2022-10-10T00:43:25;106.95;;;16.80;;
34035;SDS011;63481;52.588;22.472;2022-10-10T00:44:01;162.32;;;19.42;;
34035;SDS011;63481;52.588;22.472;2022-10-10T00:44:35;188.45;;;19.00;;
34035;SDS011;63481;52.588;22.472;2022-10-10T00:46:00;57.00;;;13.25;;
34035;SDS011;63481;52.588;22.472;2022-10-10T00:46:32;52.00;;;13.93;;
34035;SDS011;63481;52.588;22.472;2022-10-10T00:47:04;55.25;;;13.35;;
34035;SDS011;63481;52.588;22.472;2022-10-10T00:47:35;32.03;;;12.93;;
34035;SDS011;63481;52.588;22.472;2022-10-10T00:48:08;37.93;;;13.35;;
34035;SDS011;63481;52.588;22.472;2022-10-10T00:48:51;30.00;;;13.25;;
34035;SDS011;63481;52.588;22.472;2022-10-10T00:49:24;30.50;;;13.78;;
34035;SDS011;63481;52.588;22.472;2022-10-10T00:49:58;48.38;;;14.68;;
34035;SDS011;63481;52.588;22.472;2022-10-10T00:50:30;45.17;;;15.05;;
34035;SDS011;63481;52.588;22.472;2022-10-10T00:51:10;39.92;;;14.40;;
34035;SDS011;63481;52.588;22.472;2022-10-10T00:51:40;49.63;;;14.23;;
34035;SDS011;63481;52.588;22.472;2022-10-10T00:52:13;43.75;;;14.95;;
34035;SDS011;63481;52.588;22.472;2022-10-10T00:52:45;47.25;;;13.35;;
34035;SDS011;63481;52.588;22.472;2022-10-10T00:53:18;43.55;;;13.43;;
34035;SDS011;63481;52.588;22.472;2022-10-10T00:53:55;42.00;;;12.68;;
34035;SDS011;63481;52.588;22.472;2022-10-10T00:54:27;70.57;;;13.58;;
34035;SDS011;63481;52.588;22.472;2022-10-10T00:55:02;47.10;;;14.10;;
34035;SDS011;63481;52.588;22.472;2022-10-10T00:55:34;59.08;;;13.20;;
34035;SDS011;63481;52.588;22.472;2022-10-10T00:56:06;58.30;;;13.18;;
34035;SDS011;63481;52.588;22.472;2022-10-10T00:56:42;63.33;;;14.03;;
34035;SDS011;63481;52.588;22.472;2022-10-10T00:57:20;54.58;;;13.70;;
34035;SDS011;63481;52.588;22.472;2022-10-10T00:57:52;34.53;;;12.25;;
34035;SDS011;63481;52.588;22.472;2022-10-10T00:58:24;35.10;;;12.47;;
34035;SDS011;63481;52.588;22.472;2022-10-10T00:58:57;41.10;;;13.30;;
34035;SDS011;63481;52.588;22.472;2022-10-10T00:59:31;39.10;;;13.45;;
34035;SDS011;63481;52.588;22.472;2022-10-10T01:00:05;37.78;;;14.07;;
34035;SDS011;63481;52.588;22.472;2022-10-10T01:00:38;48.63;;;15.40;;
34035;SDS011;63481;52.588;22.472;2022-10-10T01:01:10;47.75;;;14.40;;
34035;SDS011;63481;52.588;22.472;2022-10-10T01:01:41;51.60;;;14.58;;
34035;SDS011;63481;52.588;22.472;2022-10-10T01:02:13;68.47;;;14.65;;
34035;SDS011;63481;52.588;22.472;2022-10-10T01:02:45;35.65;;;14.23;;
34035;SDS011;63481;52.588;22.472;2022-10-10T01:03:16;36.60;;;14.15;;
34035;SDS011;63481;52.588;22.472;2022-10-10T01:03:48;34.63;;;14.03;;
34035;SDS011;63481;52.588;22.472;2022-10-10T01:05:07;37.60;;;12.75;;
34035;SDS011;63481;52.588;22.472;2022-10-10T01:05:39;47.85;;;12.95;;
34035;SDS011;63481;52.588;22.472;2022-10-10T01:06:12;37.28;;;12.43;;
34035;SDS011;63481;52.588;22.472;2022-10-10T01:06:44;44.10;;;13.38;;
34035;SDS011;63481;52.588;22.472;2022-10-10T01:07:20;53.30;;;13.28;;
34035;SDS011;63481;52.588;22.472;2022-10-10T01:07:53;62.23;;;14.20;;
34035;SDS011;63481;52.588;22.472;2022-10-10T01:08:26;42.00;;;12.75;;
34035;SDS011;63481;52.588;22.472;2022-10-10T01:08:58;58.15;;;14.20;;
34035;SDS011;63481;52.588;22.472;2022-10-10T01:09:31;68.40;;;13.53;;
34035;SDS011;63481;52.588;22.472;2022-10-10T01:10:08;79.03;;;14.28;;
34035;SDS011;63481;52.588;22.472;2022-10-10T01:10:47;85.60;;;12.58;;
34035;SDS011;63481;52.588;22.472;2022-10-10T01:12:26;116.37;;;13.50;;
34035;SDS011;63481;52.588;22.472;2022-10-10T01:13:12;101.15;;;13.95;;
34035;SDS011;63481;52.588;22.472;2022-10-10T01:15:44;69.45;;;12.80;;
34035;SDS011;63481;52.588;22.472;2022-10-10T01:17:18;61.05;;;12.68;;
34035;SDS011;63481;52.588;22.472;2022-10-10T01:19:09;38.70;;;11.53;;
34035;SDS011;63481;52.588;22.472;2022-10-10T01:19:41;51.02;;;12.80;;
34035;SDS011;63481;52.588;22.472;2022-10-10T01:21:59;66.85;;;12.13;;
34035;SDS011;63481;52.588;22.472;2022-10-10T01:23:45;42.80;;;10.60;;
34035;SDS011;63481;52.588;22.472;2022-10-10T01:28:09;31.35;;;14.30;;
34035;SDS011;63481;52.588;22.472;2022-10-10T01:28:43;42.23;;;13.78;;
34035;SDS011;63481;52.588;22.472;2022-10-10T01:29:32;35.60;;;13.15;;
34035;SDS011;63481;52.588;22.472;2022-10-10T01:30:13;45.83;;;14.78;;
34035;SDS011;63481;52.588;22.472;2022-10-10T01:30:53;27.77;;;13.13;;
34035;SDS011;63481;52.588;22.472;2022-10-10T01:31:27;55.05;;;11.90;;
34035;SDS011;63481;52.588;22.472;2022-10-10T01:32:52;17.80;;;10.55;;
34035;SDS011;63481;52.588;22.472;2022-10-10T01:33:37;21.87;;;10.93;;
34035;SDS011;63481;52.588;22.472;2022-10-10T01:34:58;15.08;;;9.00;;
34035;SDS011;63481;52.588;22.472;2022-10-10T01:36:28;18.90;;;10.35;;
34035;SDS011;63481;52.588;22.472;2022-10-10T01:37:17;23.62;;;11.00;;
34035;SDS011;63481;52.588;22.472;2022-10-10T01:37:53;22.55;;;11.22;;
34035;SDS011;63481;52.588;22.472;2022-10-10T01:38:30;20.82;;;10.80;;
34035;SDS011;63481;52.588;22.472;2022-10-10T01:39:22;23.87;;;11.55;;
34035;SDS011;63481;52.588;22.472;2022-10-10T01:40:12;15.30;;;10.85;;
34035;SDS011;63481;52.588;22.472;2022-10-10T01:41:40;17.85;;;11.08;;
34035;SDS011;63481;52.588;22.472;2022-10-10T01:43:03;18.42;;;12.30;;
34035;SDS011;63481;52.588;22.472;2022-10-10T01:43:34;21.48;;;12.23;;
34035;SDS011;63481;52.588;22.472;2022-10-10T01:44:06;22.85;;;12.73;;
34035;SDS011;63481;52.588;22.472;2022-10-10T01:44:42;18.20;;;12.75;;
34035;SDS011;63481;52.588;22.472;2022-10-10T01:45:15;18.73;;;11.28;;
34035;SDS011;63481;52.588;22.472;2022-10-10T01:45:48;14.35;;;9.90;;
34035;SDS011;63481;52.588;22.472;2022-10-10T01:46:21;15.38;;;10.00;;
34035;SDS011;63481;52.588;22.472;2022-10-10T01:46:53;13.95;;;9.90;;
34035;SDS011;63481;52.588;22.472;2022-10-10T01:47:24;18.00;;;10.53;;
34035;SDS011;63481;52.588;22.472;2022-10-10T01:47:56;15.58;;;9.98;;
34035;SDS011;63481;52.588;22.472;2022-10-10T01:48:34;14.05;;;8.95;;
34035;SDS011;63481;52.588;22.472;2022-10-10T01:49:05;17.12;;;8.03;;
34035;SDS011;63481;52.588;22.472;2022-10-10T01:49:37;17.57;;;10.30;;
34035;SDS011;63481;52.588;22.472;2022-10-10T01:50:13;20.25;;;11.40;;
34035;SDS011;63481;52.588;22.472;2022-10-10T01:50:51;15.88;;;11.35;;
34035;SDS011;63481;52.588;22.472;2022-10-10T01:53:45;13.60;;;7.47;;
34035;SDS011;63481;52.588;22.472;2022-10-10T01:54:35;14.28;;;6.20;;
34035;SDS011;63481;52.588;22.472;2022-10-10T01:56:07;13.45;;;8.85;;
34035;SDS011;63481;52.588;22.472;2022-10-10T01:57:58;16.85;;;8.30;;
34035;SDS011;63481;52.588;22.472;2022-10-10T01:58:40;17.82;;;9.50;;
34035;SDS011;63481;52.588;22.472;2022-10-10T02:00:01;17.10;;;11.33;;
34035;SDS011;63481;52.588;22.472;2022-10-10T02:01:21;16.23;;;10.58;;
34035;SDS011;63481;52.588;22.472;2022-10-10T02:02:22;15.08;;;6.17;;
34035;SDS011;63481;52.588;22.472;2022-10-10T02:03:09;11.97;;;5.78;;
34035;SDS011;63481;52.588;22.472;2022-10-10T02:03:40;19.40;;;6.22;;
34035;SDS011;63481;52.588;22.472;2022-10-10T02:04:19;11.97;;;7.45;;
34035;SDS011;63481;52.588;22.472;2022-10-10T02:05:03;14.63;;;7.83;;
34035;SDS011;63481;52.588;22.472;2022-10-10T02:05:41;13.93;;;7.62;;
34035;SDS011;63481;52.588;22.472;2022-10-10T02:06:21;12.30;;;8.05;;
34035;SDS011;63481;52.588;22.472;2022-10-10T02:06:57;12.18;;;8.25;;
34035;SDS011;63481;52.588;22.472;2022-10-10T02:07:40;13.83;;;9.78;;
34035;SDS011;63481;52.588;22.472;2022-10-10T02:08:16;15.80;;;9.75;;
34035;SDS011;63481;52.588;22.472;2022-10-10T02:08:59;20.77;;;10.58;;
34035;SDS011;63481;52.588;22.472;2022-10-10T02:09:34;13.70;;;9.30;;
34035;SDS011;63481;52.588;22.472;2022-10-10T02:10:08;25.05;;;10.70;;
34035;SDS011;63481;52.588;22.472;2022-10-10T02:10:44;19.82;;;11.30;;
34035;SDS011;63481;52.588;22.472;2022-10-10T02:11:18;21.48;;;10.40;;
34035;SDS011;63481;52.588;22.472;2022-10-10T02:11:50;18.77;;;11.38;;
34035;SDS011;63481;52.588;22.472;2022-10-10T02:12:23;15.98;;;11.60;;
34035;SDS011;63481;52.588;22.472;2022-10-10T02:12:56;18.70;;;11.68;;
34035;SDS011;63481;52.588;22.472;2022-10-10T02:13:32;19.42;;;11.97;;
34035;SDS011;63481;52.588;22.472;2022-10-10T02:14:16;19.05;;;11.78;;
34035;SDS011;63481;52.588;22.472;2022-10-10T02:14:48;17.02;;;11.35;;
34035;SDS011;63481;52.588;22.472;2022-10-10T02:15:23;20.45;;;11.35;;
34035;SDS011;63481;52.588;22.472;2022-10-10T02:15:57;15.55;;;10.98;;
34035;SDS011;63481;52.588;22.472;2022-10-10T02:16:32;21.37;;;10.40;;
34035;SDS011;63481;52.588;22.472;2022-10-10T02:17:07;16.90;;;10.82;;
34035;SDS011;63481;52.588;22.472;2022-10-10T02:17:42;15.70;;;11.05;;
34035;SDS011;63481;52.588;22.472;2022-10-10T02:18:15;20.23;;;10.95;;
34035;SDS011;63481;52.588;22.472;2022-10-10T02:18:50;17.35;;;10.65;;
34035;SDS011;63481;52.588;22.472;2022-10-10T02:19:24;15.83;;;10.48;;
34035;SDS011;63481;52.588;22.472;2022-10-10T02:19:58;18.90;;;11.28;;
34035;SDS011;63481;52.588;22.472;2022-10-10T02:20:30;16.77;;;10.90;;
34035;SDS011;63481;52.588;22.472;2022-10-10T02:21:03;16.97;;;10.55;;
34035;SDS011;63481;52.588;22.472;2022-10-10T02:21:38;15.10;;;10.53;;
34035;SDS011;63481;52.588;22.472;2022-10-10T02:22:12;16.87;;;10.88;;
34035;SDS011;63481;52.588;22.472;2022-10-10T02:22:44;16.10;;;10.35;;
34035;SDS011;63481;52.588;22.472;2022-10-10T02:23:17;14.53;;;10.55;;
34035;SDS011;63481;52.588;22.472;2022-10-10T02:23:51;15.58;;;10.85;;
34035;SDS011;63481;52.588;22.472;2022-10-10T02:24:25;15.13;;;11.18;;
34035;SDS011;63481;52.588;22.472;2022-10-10T02:24:57;15.48;;;10.88;;
34035;SDS011;63481;52.588;22.472;2022-10-10T02:25:30;17.00;;;10.93;;
34035;SDS011;63481;52.588;22.472;2022-10-10T02:26:04;19.12;;;11.88;;
34035;SDS011;63481;52.588;22.472;2022-10-10T02:26:36;45.30;;;12.45;;
34035;SDS011;63481;52.588;22.472;2022-10-10T02:27:15;23.85;;;12.45;;
34035;SDS011;63481;52.588;22.472;2022-10-10T02:29:12;28.45;;;11.22;;
34035;SDS011;63481;52.588;22.472;2022-10-10T02:29:45;24.23;;;10.25;;
34035;SDS011;63481;52.588;22.472;2022-10-10T02:30:19;20.88;;;11.50;;
34035;SDS011;63481;52.588;22.472;2022-10-10T02:30:52;21.77;;;11.78;;
34035;SDS011;63481;52.588;22.472;2022-10-10T02:31:28;17.23;;;11.83;;
34035;SDS011;63481;52.588;22.472;2022-10-10T02:32:05;19.37;;;11.85;;
34035;SDS011;63481;52.588;22.472;2022-10-10T02:32:49;28.67;;;12.53;;
34035;SDS011;63481;52.588;22.472;2022-10-10T02:33:28;23.98;;;12.05;;
34035;SDS011;63481;52.588;22.472;2022-10-10T02:34:10;21.00;;;11.40;;
34035;SDS011;63481;52.588;22.472;2022-10-10T02:34:42;19.30;;;11.45;;
34035;SDS011;63481;52.588;22.472;2022-10-10T02:35:22;22.05;;;12.03;;
34035;SDS011;63481;52.588;22.472;2022-10-10T02:35:56;20.62;;;11.15;;
34035;SDS011;63481;52.588;22.472;2022-10-10T02:36:29;22.00;;;12.33;;
34035;SDS011;63481;52.588;22.472;2022-10-10T02:37:04;31.30;;;11.90;;
34035;SDS011;63481;52.588;22.472;2022-10-10T02:37:37;25.35;;;12.30;;
34035;SDS011;63481;52.588;22.472;2022-10-10T02:38:11;23.85;;;12.85;;
34035;SDS011;63481;52.588;22.472;2022-10-10T02:38:45;27.42;;;12.75;;
34035;SDS011;63481;52.588;22.472;2022-10-10T02:39:20;24.92;;;12.73;;
34035;SDS011;63481;52.588;22.472;2022-10-10T02:39:55;28.50;;;12.75;;
34035;SDS011;63481;52.588;22.472;2022-10-10T02:40:30;35.10;;;13.85;;
34035;SDS011;63481;52.588;22.472;2022-10-10T02:41:03;35.38;;;12.95;;
34035;SDS011;63481;52.588;22.472;2022-10-10T02:41:38;28.90;;;12.95;;
34035;SDS011;63481;52.588;22.472;2022-10-10T02:42:13;29.40;;;13.00;;
34035;SDS011;63481;52.588;22.472;2022-10-10T02:42:48;36.98;;;13.48;;
34035;SDS011;63481;52.588;22.472;2022-10-10T02:43:21;22.48;;;12.73;;
34035;SDS011;63481;52.588;22.472;2022-10-10T02:43:53;22.50;;;12.90;;
34035;SDS011;63481;52.588;22.472;2022-10-10T02:44:25;21.65;;;12.93;;
34035;SDS011;63481;52.588;22.472;2022-10-10T02:44:57;21.40;;;13.15;;
34035;SDS011;63481;52.588;22.472;2022-10-10T02:45:29;20.75;;;13.43;;
34035;SDS011;63481;52.588;22.472;2022-10-10T02:46:03;25.12;;;13.30;;
34035;SDS011;63481;52.588;22.472;2022-10-10T02:46:38;20.52;;;14.10;;
34035;SDS011;63481;52.588;22.472;2022-10-10T02:47:10;23.45;;;13.93;;
34035;SDS011;63481;52.588;22.472;2022-10-10T02:47:43;20.72;;;13.65;;
34035;SDS011;63481;52.588;22.472;2022-10-10T02:48:15;32.60;;;14.60;;
34035;SDS011;63481;52.588;22.472;2022-10-10T02:48:46;25.10;;;13.95;;
34035;SDS011;63481;52.588;22.472;2022-10-10T02:49:21;28.12;;;12.43;;
34035;SDS011;63481;52.588;22.472;2022-10-10T02:49:57;28.77;;;13.40;;
34035;SDS011;63481;52.588;22.472;2022-10-10T02:50:29;23.42;;;13.00;;
34035;SDS011;63481;52.588;22.472;2022-10-10T02:51:01;29.42;;;13.58;;
34035;SDS011;63481;52.588;22.472;2022-10-10T02:51:33;29.57;;;14.43;;
34035;SDS011;63481;52.588;22.472;2022-10-10T02:52:05;55.25;;;13.68;;
34035;SDS011;63481;52.588;22.472;2022-10-10T02:52:37;523.60;;;29.12;;
34035;SDS011;63481;52.588;22.472;2022-10-10T02:53:09;346.77;;;20.75;;
34035;SDS011;63481;52.588;22.472;2022-10-10T02:53:41;121.87;;;14.75;;
34035;SDS011;63481;52.588;22.472;2022-10-10T02:54:12;251.27;;;17.60;;
34035;SDS011;63481;52.588;22.472;2022-10-10T02:54:44;186.35;;;15.72;;
34035;SDS011;63481;52.588;22.472;2022-10-10T02:55:15;411.55;;;26.73;;
34035;SDS011;63481;52.588;22.472;2022-10-10T02:55:47;112.70;;;15.68;;
34035;SDS011;63481;52.588;22.472;2022-10-10T02:56:18;18.40;;;11.33;;
34035;SDS011;63481;52.588;22.472;2022-10-10T02:56:50;22.27;;;11.30;;
34035;SDS011;63481;52.588;22.472;2022-10-10T02:57:22;67.25;;;12.45;;
34035;SDS011;63481;52.588;22.472;2022-10-10T02:57:53;116.82;;;13.28;;
34035;SDS011;63481;52.588;22.472;2022-10-10T02:58:25;68.12;;;11.12;;
34035;SDS011;63481;52.588;22.472;2022-10-10T02:58:56;98.58;;;14.45;;
34035;SDS011;63481;52.588;22.472;2022-10-10T02:59:28;20.12;;;12.20;;
34035;SDS011;63481;52.588;22.472;2022-10-10T03:00:00;21.45;;;12.45;;
34035;SDS011;63481;52.588;22.472;2022-10-10T03:00:32;36.58;;;13.28;;
34035;SDS011;63481;52.588;22.472;2022-10-10T03:01:03;49.03;;;12.20;;
34035;SDS011;63481;52.588;22.472;2022-10-10T03:01:35;53.08;;;14.03;;
34035;SDS011;63481;52.588;22.472;2022-10-10T03:02:07;38.78;;;14.35;;
34035;SDS011;63481;52.588;22.472;2022-10-10T03:02:38;52.67;;;13.40;;
34035;SDS011;63481;52.588;22.472;2022-10-10T03:03:10;31.00;;;11.93;;
34035;SDS011;63481;52.588;22.472;2022-10-10T03:03:42;33.45;;;12.73;;
34035;SDS011;63481;52.588;22.472;2022-10-10T03:04:14;31.35;;;12.33;;
34035;SDS011;63481;52.588;22.472;2022-10-10T03:04:46;23.42;;;11.30;;
34035;SDS011;63481;52.588;22.472;2022-10-10T03:05:18;29.95;;;10.93;;
34035;SDS011;63481;52.588;22.472;2022-10-10T03:05:50;23.67;;;11.18;;
34035;SDS011;63481;52.588;22.472;2022-10-10T03:06:21;38.88;;;13.05;;
34035;SDS011;63481;52.588;22.472;2022-10-10T03:06:53;41.95;;;14.18;;
34035;SDS011;63481;52.588;22.472;2022-10-10T03:07:25;42.10;;;12.10;;
34035;SDS011;63481;52.588;22.472;2022-10-10T03:07:57;34.40;;;12.90;;
34035;SDS011;63481;52.588;22.472;2022-10-10T03:08:28;27.87;;;12.78;;
34035;SDS011;63481;52.588;22.472;2022-10-10T03:09:00;23.05;;;12.47;;
34035;SDS011;63481;52.588;22.472;2022-10-10T03:09:32;33.13;;;13.55;;
34035;SDS011;63481;52.588;22.472;2022-10-10T03:10:04;30.70;;;13.03;;
34035;SDS011;63481;52.588;22.472;2022-10-10T03:10:37;35.80;;;13.20;;
34035;SDS011;63481;52.588;22.472;2022-10-10T03:11:09;36.77;;;13.15;;
34035;SDS011;63481;52.588;22.472;2022-10-10T03:11:41;31.33;;;12.60;;
34035;SDS011;63481;52.588;22.472;2022-10-10T03:12:13;37.78;;;13.20;;
34035;SDS011;63481;52.588;22.472;2022-10-10T03:12:45;39.23;;;13.95;;
34035;SDS011;63481;52.588;22.472;2022-10-10T03:13:16;44.90;;;12.98;;
34035;SDS011;63481;52.588;22.472;2022-10-10T03:13:48;34.20;;;14.03;;
34035;SDS011;63481;52.588;22.472;2022-10-10T03:14:19;37.45;;;14.45;;
34035;SDS011;63481;52.588;22.472;2022-10-10T03:14:51;33.45;;;14.35;;
34035;SDS011;63481;52.588;22.472;2022-10-10T03:15:23;29.42;;;14.63;;
34035;SDS011;63481;52.588;22.472;2022-10-10T03:15:54;38.20;;;15.83;;
34035;SDS011;63481;52.588;22.472;2022-10-10T03:16:26;54.00;;;19.02;;
34035;SDS011;63481;52.588;22.472;2022-10-10T03:16:57;33.92;;;16.82;;
34035;SDS011;63481;52.588;22.472;2022-10-10T03:17:29;63.15;;;22.70;;
34035;SDS011;63481;52.588;22.472;2022-10-10T03:18:00;56.75;;;18.02;;
34035;SDS011;63481;52.588;22.472;2022-10-10T03:18:32;41.00;;;19.60;;
34035;SDS011;63481;52.588;22.472;2022-10-10T03:19:03;59.50;;;26.42;;
34035;SDS011;63481;52.588;22.472;2022-10-10T03:19:36;63.42;;;27.60;;
34035;SDS011;63481;52.588;22.472;2022-10-10T03:20:08;73.60;;;26.85;;
34035;SDS011;63481;52.588;22.472;2022-10-10T03:20:43;57.05;;;26.48;;
34035;SDS011;63481;52.588;22.472;2022-10-10T03:21:15;55.67;;;25.82;;
34035;SDS011;63481;52.588;22.472;2022-10-10T03:21:47;56.50;;;23.85;;
34035;SDS011;63481;52.588;22.472;2022-10-10T03:22:18;46.83;;;20.17;;
34035;SDS011;63481;52.588;22.472;2022-10-10T03:22:50;31.40;;;15.63;;
34035;SDS011;63481;52.588;22.472;2022-10-10T03:23:22;40.50;;;16.00;;
34035;SDS011;63481;52.588;22.472;2022-10-10T03:23:55;25.62;;;14.07;;
34035;SDS011;63481;52.588;22.472;2022-10-10T03:24:27;22.87;;;13.60;;
34035;SDS011;63481;52.588;22.472;2022-10-10T03:24:59;19.67;;;12.18;;
34035;SDS011;63481;52.588;22.472;2022-10-10T03:25:30;25.15;;;13.35;;
34035;SDS011;63481;52.588;22.472;2022-10-10T03:26:04;22.42;;;13.38;;
34035;SDS011;63481;52.588;22.472;2022-10-10T03:26:36;33.25;;;14.43;;
34035;SDS011;63481;52.588;22.472;2022-10-10T03:27:07;31.07;;;15.95;;
34035;SDS011;63481;52.588;22.472;2022-10-10T03:27:39;31.95;;;16.77;;
34035;SDS011;63481;52.588;22.472;2022-10-10T03:28:10;33.78;;;15.55;;
34035;SDS011;63481;52.588;22.472;2022-10-10T03:28:42;35.95;;;16.37;;
34035;SDS011;63481;52.588;22.472;2022-10-10T03:29:14;34.20;;;16.20;;
34035;SDS011;63481;52.588;22.472;2022-10-10T03:29:46;41.53;;;18.45;;
34035;SDS011;63481;52.588;22.472;2022-10-10T03:30:17;51.88;;;17.82;;
34035;SDS011;63481;52.588;22.472;2022-10-10T03:30:49;54.35;;;24.92;;
34035;SDS011;63481;52.588;22.472;2022-10-10T03:31:20;53.80;;;23.65;;
34035;SDS011;63481;52.588;22.472;2022-10-10T03:31:52;45.10;;;21.12;;
34035;SDS011;63481;52.588;22.472;2022-10-10T03:32:23;48.08;;;20.80;;
34035;SDS011;63481;52.588;22.472;2022-10-10T03:32:55;36.00;;;17.92;;
34035;SDS011;63481;52.588;22.472;2022-10-10T03:33:26;47.00;;;16.73;;
34035;SDS011;63481;52.588;22.472;2022-10-10T03:33:58;47.67;;;19.52;;
34035;SDS011;63481;52.588;22.472;2022-10-10T03:34:30;34.95;;;18.85;;
34035;SDS011;63481;52.588;22.472;2022-10-10T03:35:02;36.38;;;17.87;;
34035;SDS011;63481;52.588;22.472;2022-10-10T03:35:33;35.00;;;15.55;;
34035;SDS011;63481;52.588;22.472;2022-10-10T03:36:05;39.30;;;17.05;;
34035;SDS011;63481;52.588;22.472;2022-10-10T03:36:37;33.92;;;14.73;;
34035;SDS011;63481;52.588;22.472;2022-10-10T03:37:08;31.87;;;13.72;;
34035;SDS011;63481;52.588;22.472;2022-10-10T03:37:40;34.40;;;14.30;;
34035;SDS011;63481;52.588;22.472;2022-10-10T03:38:11;36.77;;;15.00;;
34035;SDS011;63481;52.588;22.472;2022-10-10T03:38:44;49.27;;;15.58;;